Time;durP1;ratioP1;P1;durP2;ratioP2;P2;SDS_P1;SDS_P2;PMS_P1;PMS_P2;Temp;Humidity;BMP_temperature;BMP_pressure;BME280_temperature;BME280_humidity;BME280_pressure;Samples;Min_cycle;Max_cycle;Signal;HPM_P1;HPM_P2
2023/02/21 02:14:53;;;;;;;;;;;;;;;3.26;nan;100980.22;4983775;28;20028;-86
2023/02/21 02:17:33;;;;;;;;;;;;;;;3.27;nan;100970.66;4991867;28;20339;-85
2023/02/21 02:20:13;;;;;;;;;;;;;;;3.27;nan;100978.47;4992600;28;19921;-86
2023/02/21 02:22:57;;;;;;;;;;;;;;;3.24;nan;100989.94;4995230;28;19918;-85
2023/02/21 02:25:41;;;;;;;;;;;;;;;3.23;nan;100988.28;4985892;28;20372;-85
2023/02/21 02:28:09;;;;;;;;;;;;;;;3.19;nan;100978.94;4986697;28;19918;-85
2023/02/21 02:30:52;;;;;;;;;;;;;;;3.19;nan;100981.53;4985084;28;19976;-85
2023/02/21 02:33:28;;;;;;;;;;;;;;;3.18;nan;100980.72;4974039;28;19953;-84
2023/02/21 02:35:58;;;;;;;;;;;;;;;3.17;nan;100986.88;4977082;28;19922;-85
2023/02/21 02:38:27;;;;;;;;;;;;;;;3.18;nan;100975.47;4979666;28;19918;-85
2023/02/21 02:40:55;;;;;;;;;;;;;;;3.16;nan;100969.50;4991078;28;20434;-85
2023/02/21 02:43:24;;;;;;;;;;;;;;;3.13;nan;100977.53;4969740;28;19957;-85
2023/02/21 02:45:57;;;;;;;;;;;;;;;3.12;nan;100975.88;4978710;28;19921;-85
2023/02/21 02:48:29;;;;;;;;;;;;;;;3.10;nan;100967.28;4983678;28;19933;-85
2023/02/21 02:50:57;;;;;;;;;;;;;;;3.08;nan;100981.38;4991803;28;19921;-86
2023/02/21 02:53:25;;;;;;;;;;;;;;;3.05;nan;100973.69;4991724;28;19921;-85
2023/02/21 02:55:54;;;;;;;;;;;;;;;3.05;nan;100977.19;4976398;28;19924;-85
2023/02/21 02:58:21;;;;;;;;;;;;;;;3.04;nan;100974.66;5012597;28;19905;-84
2023/02/21 03:00:51;;;;;;;;;;;;;;;3.02;nan;100966.06;5005132;28;19917;-86
2023/02/21 03:03:33;;;;;;;;;;;;;;;2.98;nan;100981.09;4978834;28;19918;-84
2023/02/21 03:06:18;;;;;;;;;;;;;;;2.95;nan;100976.03;4992811;28;20479;-86
2023/02/21 03:08:50;;;;;;;;;;;;;;;2.91;nan;100977.16;4993105;28;20005;-85
2023/02/21 03:11:24;;;;;;;;;;;;;;;2.87;nan;100980.88;4975849;28;19926;-84
2023/02/21 03:13:59;;;;;;;;;;;;;;;2.87;nan;100986.94;4990640;28;19925;-85
2023/02/21 03:16:30;;;;;;;;;;;;;;;2.89;nan;100979.84;4985245;28;19926;-85
2023/02/21 03:18:57;;;;;;;;;;;;;;;2.89;nan;100982.47;4973944;28;19917;-86
2023/02/21 03:21:27;;;;;;;;;;;;;;;2.86;nan;100987.88;4985082;28;20080;-85
2023/02/21 03:23:56;;;;;;;;;;;;;;;2.84;nan;100986.28;4975473;28;19991;-85
2023/02/21 03:26:21;;;;;;;;;;;;;;;2.83;nan;100989.81;4990340;28;19924;-85
2023/02/21 03:28:47;;;;;;;;;;;;;;;2.81;nan;100986.44;4992116;28;19918;-86
2023/02/21 03:31:15;;;;;;;;;;;;;;;2.80;nan;100979.56;4986023;28;19937;-86
2023/02/21 03:33:40;;;;;;;;;;;;;;;2.77;nan;100983.19;4970251;28;20451;-86
2023/02/21 03:36:07;;;;;;;;;;;;;;;2.76;nan;100984.97;4974527;28;19960;-86
2023/02/21 03:38:32;;;;;;;;;;;;;;;2.78;nan;100981.41;4989734;28;19981;-85
2023/02/21 03:40:57;;;;;;;;;;;;;;;2.76;nan;100987.59;4998143;28;20352;-84
2023/02/21 03:43:22;;;;;;;;;;;;;;;2.75;nan;100978.06;4992858;28;19967;-87
2023/02/21 03:45:48;;;;;;;;;;;;;;;2.73;nan;100985.13;4973869;28;19918;-86
2023/02/21 03:48:13;;;;;;;;;;;;;;;2.72;nan;100978.25;4969017;28;20012;-86
2023/02/21 03:50:38;;;;;;;;;;;;;;;2.72;nan;100980.03;4979119;28;19953;-86
2023/02/21 03:53:06;;;;;;;;;;;;;;;2.68;nan;100981.94;4976209;28;19992;-86
2023/02/21 03:55:31;;;;;;;;;;;;;;;2.66;nan;100982.97;4984609;28;19949;-86
2023/02/21 03:57:56;;;;;;;;;;;;;;;2.65;nan;100973.47;4973334;28;19952;-86
2023/02/21 04:00:21;;;;;;;;;;;;;;;2.66;nan;100973.38;4970106;28;20012;-86
2023/02/21 04:02:47;;;;;;;;;;;;;;;2.66;nan;100973.38;4971063;28;19914;-87
2023/02/21 04:05:12;;;;;;;;;;;;;;;2.65;nan;100987.38;4975576;28;19914;-86
2023/02/21 04:07:37;;;;;;;;;;;;;;;2.61;nan;100972.78;4976400;28;19996;-86
2023/02/21 04:10:02;;;;;;;;;;;;;;;2.59;nan;100977.25;4969364;28;20457;-86
2023/02/21 04:12:27;;;;;;;;;;;;;;;2.59;nan;100972.03;4977062;28;20007;-86
2023/02/21 04:14:55;;;;;;;;;;;;;;;2.58;nan;100973.00;4957891;28;20315;-86
2023/02/21 04:17:20;;;;;;;;;;;;;;;2.55;nan;100970.53;4970498;28;19925;-87
2023/02/21 04:19:45;;;;;;;;;;;;;;;2.54;nan;100968.88;4986802;28;19914;-86
2023/02/21 04:22:11;;;;;;;;;;;;;;;2.54;nan;100974.91;4973335;28;19934;-86
2023/02/21 04:24:36;;;;;;;;;;;;;;;2.54;nan;100982.75;4974563;28;20379;-86
2023/02/21 04:27:01;;;;;;;;;;;;;;;2.53;nan;100977.63;4989678;28;19964;-86
2023/02/21 04:29:26;;;;;;;;;;;;;;;2.50;nan;100975.19;4974474;28;19918;-86
2023/02/21 04:31:52;;;;;;;;;;;;;;;2.49;nan;100976.13;4966868;28;19925;-86
2023/02/21 04:34:17;;;;;;;;;;;;;;;2.49;nan;100973.50;4955424;28;19914;-86
2023/02/21 04:36:42;;;;;;;;;;;;;;;2.48;nan;100964.84;4970314;28;19941;-86
2023/02/21 04:39:07;;;;;;;;;;;;;;;2.46;nan;100963.25;4977376;28;19918;-86
2023/02/21 04:41:33;;;;;;;;;;;;;;;2.46;nan;100961.47;4968696;28;19914;-86
2023/02/21 04:43:58;;;;;;;;;;;;;;;2.47;nan;100962.31;4973234;28;19913;-86
2023/02/21 04:46:24;;;;;;;;;;;;;;;2.48;nan;100966.59;4982193;28;19965;-86
2023/02/21 04:48:50;;;;;;;;;;;;;;;2.47;nan;100960.53;4984021;28;20368;-86
2023/02/21 04:51:16;;;;;;;;;;;;;;;2.47;nan;100962.31;4983736;28;19945;-86
2023/02/21 04:53:42;;;;;;;;;;;;;;;2.48;nan;100963.97;4966086;28;20021;-86
2023/02/21 04:56:07;;;;;;;;;;;;;;;2.47;nan;100963.16;4975288;28;19953;-86
2023/02/21 04:58:32;;;;;;;;;;;;;;;2.46;nan;100955.44;4978959;28;20008;-86
2023/02/21 05:00:58;;;;;;;;;;;;;;;2.45;nan;100959.78;4984545;28;19917;-86
2023/02/21 05:03:23;;;;;;;;;;;;;;;2.45;nan;100964.19;4989335;28;19920;-86
2023/02/21 05:05:48;;;;;;;;;;;;;;;2.42;nan;100961.75;4981024;28;19921;-86
2023/02/21 05:08:13;;;;;;;;;;;;;;;2.42;nan;100956.53;5007855;28;20465;-86
2023/02/21 05:10:39;;;;;;;;;;;;;;;2.39;nan;100949.72;5007495;28;19917;-86
2023/02/21 05:13:04;;;;;;;;;;;;;;;2.37;nan;100956.78;5007697;28;20371;-86
2023/02/21 05:15:29;;;;;;;;;;;;;;;2.34;nan;100955.19;4981994;28;19914;-85
2023/02/21 05:17:54;;;;;;;;;;;;;;;2.31;nan;100955.38;4973809;28;20017;-85
2023/02/21 05:20:20;;;;;;;;;;;;;;;2.25;nan;100958.34;4965279;28;19965;-86
2023/02/21 05:22:47;;;;;;;;;;;;;;;2.22;nan;100968.13;4965809;28;19921;-86
2023/02/21 05:25:16;;;;;;;;;;;;;;;2.20;nan;100955.16;4976411;28;19924;-86
2023/02/21 05:27:42;;;;;;;;;;;;;;;2.22;nan;100965.50;4984465;28;20016;-86
2023/02/21 05:30:07;;;;;;;;;;;;;;;2.22;nan;100968.13;4972950;28;19949;-86
2023/02/21 05:32:32;;;;;;;;;;;;;;;2.20;nan;100968.19;4971045;28;20012;-85
2023/02/21 05:34:58;;;;;;;;;;;;;;;2.19;nan;100963.06;4972078;28;19914;-86
2023/02/21 05:37:23;;;;;;;;;;;;;;;2.19;nan;100969.09;4964040;28;19913;-86
2023/02/21 05:39:48;;;;;;;;;;;;;;;2.17;nan;100971.00;4964775;28;19921;-86
2023/02/21 05:42:13;;;;;;;;;;;;;;;2.12;nan;100975.59;4990316;28;19914;-86
2023/02/21 05:44:38;;;;;;;;;;;;;;;2.08;nan;100977.56;4966462;28;20403;-87
2023/02/21 05:47:06;;;;;;;;;;;;;;;2.10;nan;100978.31;4986101;28;20310;-87
2023/02/21 05:49:31;;;;;;;;;;;;;;;2.12;nan;100978.22;5014269;28;19914;-87
2023/02/21 05:51:56;;;;;;;;;;;;;;;2.11;nan;100981.75;4988849;28;19914;-86
2023/02/21 05:54:21;;;;;;;;;;;;;;;2.09;nan;100973.16;4969441;28;20375;-86
2023/02/21 05:56:47;;;;;;;;;;;;;;;2.09;nan;100970.56;4993513;28;19918;-86
2023/02/21 05:59:13;;;;;;;;;;;;;;;2.10;nan;100974.88;4984817;28;19918;-86
2023/02/21 06:01:39;;;;;;;;;;;;;;;2.10;nan;100977.47;4961166;28;20422;-87
2023/02/21 06:04:06;;;;;;;;;;;;;;;2.08;nan;100979.34;4971499;28;19914;-86
2023/02/21 06:06:31;;;;;;;;;;;;;;;2.08;nan;100974.13;4978256;28;19918;-87
2023/02/21 06:08:56;;;;;;;;;;;;;;;2.10;nan;100977.47;4975078;28;19914;-86
2023/02/21 06:11:32;;;;;;;;;;;;;;;2.11;nan;100973.94;4974876;28;20368;-86
2023/02/21 06:13:58;;;;;;;;;;;;;;;2.10;nan;100969.66;4992007;28;19930;-86
2023/02/21 06:16:23;;;;;;;;;;;;;;;2.10;nan;100972.25;4979144;28;19920;-86
2023/02/21 06:18:51;;;;;;;;;;;;;;;2.12;nan;100967.78;4969391;28;19921;-87
2023/02/21 06:21:17;;;;;;;;;;;;;;;2.11;nan;100973.94;4985440;28;19940;-86
2023/02/21 06:23:43;;;;;;;;;;;;;;;2.10;nan;100974.88;4970732;28;20420;-86
2023/02/21 06:26:09;;;;;;;;;;;;;;;2.09;nan;100976.63;4987869;28;20446;-86
2023/02/21 06:28:34;;;;;;;;;;;;;;;2.08;nan;100972.34;4990920;28;19921;-87
2023/02/21 06:30:59;;;;;;;;;;;;;;;2.08;nan;100966.28;4973108;28;19925;-86
2023/02/21 06:33:25;;;;;;;;;;;;;;;2.11;nan;100976.53;4972386;28;19918;-86
2023/02/21 06:35:50;;;;;;;;;;;;;;;2.12;nan;100970.38;4974923;28;19918;-87
2023/02/21 06:38:15;;;;;;;;;;;;;;;2.11;nan;100971.31;4971414;28;19948;-87
2023/02/21 06:40:43;;;;;;;;;;;;;;;2.12;nan;100973.84;4968070;28;20211;-86
2023/02/21 06:43:09;;;;;;;;;;;;;;;2.12;nan;100968.63;4971720;28;19945;-86
2023/02/21 06:45:34;;;;;;;;;;;;;;;2.12;nan;100973.00;4970640;28;20211;-86
2023/02/21 06:47:59;;;;;;;;;;;;;;;2.11;nan;100971.31;4972334;28;19917;-87
2023/02/21 06:50:24;;;;;;;;;;;;;;;2.09;nan;100975.78;4969351;28;20268;-86
2023/02/21 06:52:50;;;;;;;;;;;;;;;2.10;nan;100972.25;4965041;28;19914;-87
2023/02/21 06:55:19;;;;;;;;;;;;;;;2.10;nan;100969.66;4973572;28;19937;-86
2023/02/21 06:57:45;;;;;;;;;;;;;;;2.12;nan;100973.84;4970951;28;19961;-87
2023/02/21 07:00:10;;;;;;;;;;;;;;;2.18;nan;100977.03;4972620;28;19918;-87
2023/02/21 07:02:37;;;;;;;;;;;;;;;2.23;nan;100978.44;4992701;28;19964;-87
2023/02/21 07:05:02;;;;;;;;;;;;;;;2.30;nan;100978.94;4972682;28;19914;-86
2023/02/21 07:07:28;;;;;;;;;;;;;;;2.37;nan;100976.84;4974959;28;19997;-86
2023/02/21 07:09:53;;;;;;;;;;;;;;;2.44;nan;100971.16;4979343;28;20029;-87
2023/02/21 07:12:18;;;;;;;;;;;;;;;2.52;nan;100970.72;4972491;28;20204;-86
2023/02/21 07:14:43;;;;;;;;;;;;;;;2.60;nan;100975.50;4978303;28;19914;-86
2023/02/21 07:17:08;;;;;;;;;;;;;;;2.68;nan;100966.28;4969661;28;19917;-86
2023/02/21 07:19:34;;;;;;;;;;;;;;;2.79;nan;100975.25;4972347;28;20287;-86
2023/02/21 07:21:59;;;;;;;;;;;;;;;2.88;nan;100974.72;4973844;28;20284;-86
2023/02/21 07:24:24;;;;;;;;;;;;;;;2.96;nan;100973.31;4970323;28;19922;-86
2023/02/21 07:26:49;;;;;;;;;;;;;;;3.08;nan;100968.31;4987915;28;20000;-86
2023/02/21 07:29:16;;;;;;;;;;;;;;;3.20;nan;100970.16;4973963;28;19924;-86
2023/02/21 07:31:41;;;;;;;;;;;;;;;3.32;nan;100977.25;4992303;28;19939;-86
2023/02/21 07:34:06;;;;;;;;;;;;;;;3.46;nan;100972.97;4989509;28;19918;-86
2023/02/21 07:36:31;;;;;;;;;;;;;;;3.59;nan;100973.88;4972608;28;20001;-86
2023/02/21 07:38:56;;;;;;;;;;;;;;;3.71;nan;100969.66;4968327;28;19973;-86
2023/02/21 07:41:22;;;;;;;;;;;;;;;3.86;nan;100968.66;4971155;28;19925;-86
2023/02/21 07:43:47;;;;;;;;;;;;;;;3.99;nan;100980.03;4973328;28;19917;-87
2023/02/21 07:46:13;;;;;;;;;;;;;;;4.12;nan;100977.47;4980966;28;19925;-86
2023/02/21 07:48:38;;;;;;;;;;;;;;;4.25;nan;100982.75;4990931;28;19913;-86
2023/02/21 07:51:05;;;;;;;;;;;;;;;4.39;nan;100979.25;4963877;28;19918;-86
2023/02/21 07:53:30;;;;;;;;;;;;;;;4.54;nan;100978.22;4976368;28;20036;-86
2023/02/21 07:55:55;;;;;;;;;;;;;;;4.66;nan;100979.19;4970574;28;20005;-86
2023/02/21 07:58:20;;;;;;;;;;;;;;;4.81;nan;100970.28;4974082;28;19957;-86
2023/02/21 08:00:45;;;;;;;;;;;;;;;4.97;nan;100974.50;4974642;28;19969;-87
2023/02/21 08:03:12;;;;;;;;;;;;;;;5.10;nan;100980.56;4964256;28;19917;-86
2023/02/21 08:05:37;;;;;;;;;;;;;;;5.24;nan;100971.75;4972699;28;19934;-86
2023/02/21 08:08:05;;;;;;;;;;;;;;;5.37;nan;100977.00;4971288;28;19914;-87
2023/02/21 08:10:30;;;;;;;;;;;;;;;5.50;nan;100968.13;4968419;28;19945;-86
2023/02/21 08:12:56;;;;;;;;;;;;;;;5.66;nan;100981.03;4982450;28;20390;-86
2023/02/21 08:15:21;;;;;;;;;;;;;;;5.85;nan;100977.91;4979258;28;19926;-86
2023/02/21 08:17:48;;;;;;;;;;;;;;;6.01;nan;100977.69;4973184;28;20265;-85
2023/02/21 08:20:13;;;;;;;;;;;;;;;6.14;nan;100978.47;4972558;28;20346;-86
2023/02/21 08:22:38;;;;;;;;;;;;;;;6.28;nan;100980.09;4977666;28;19924;-86
2023/02/21 08:25:04;;;;;;;;;;;;;;;6.41;nan;100973.91;4981663;28;19918;-86
2023/02/21 08:27:29;;;;;;;;;;;;;;;6.55;nan;100978.97;4970267;28;19921;-86
2023/02/21 08:29:54;;;;;;;;;;;;;;;6.69;nan;100973.53;4964066;28;19983;-86
2023/02/21 08:32:19;;;;;;;;;;;;;;;6.80;nan;100978.00;4972893;28;20387;-87
2023/02/21 08:34:45;;;;;;;;;;;;;;;6.96;nan;100980.28;4974124;28;19925;-87
2023/02/21 08:37:16;;;;;;;;;;;;;;;7.06;nan;100969.91;4978670;28;19914;-86
2023/02/21 08:39:51;;;;;;;;;;;;;;;7.19;nan;100975.88;4972900;28;20437;-86
2023/02/21 08:42:20;;;;;;;;;;;;;;;7.31;nan;100969.66;4986867;28;20315;-86
2023/02/21 08:44:46;;;;;;;;;;;;;;;7.43;nan;100973.97;4968906;28;20467;-86
2023/02/21 08:47:12;;;;;;;;;;;;;;;7.57;nan;100980.78;4973594;28;20004;-86
2023/02/21 08:49:38;;;;;;;;;;;;;;;7.73;nan;100974.31;4971681;28;19918;-86
2023/02/21 08:52:04;;;;;;;;;;;;;;;7.91;nan;100977.25;4978768;28;19918;-86
2023/02/21 08:54:29;;;;;;;;;;;;;;;8.04;nan;100967.41;4973257;28;20302;-86
2023/02/21 08:56:55;;;;;;;;;;;;;;;8.22;nan;100972.97;4961843;28;19914;-86
2023/02/21 08:59:20;;;;;;;;;;;;;;;8.34;nan;100973.75;4978765;28;19936;-86
2023/02/21 09:01:48;;;;;;;;;;;;;;;8.47;nan;100966.56;4982002;28;20012;-86
2023/02/21 09:04:13;;;;;;;;;;;;;;;8.59;nan;100957.63;4971024;28;19993;-86
2023/02/21 09:06:38;;;;;;;;;;;;;;;8.68;nan;100966.56;4972007;28;19914;-87
2023/02/21 09:09:03;;;;;;;;;;;;;;;8.77;nan;100964.94;4974738;28;20443;-86
2023/02/21 09:11:29;;;;;;;;;;;;;;;8.81;nan;100961.09;4975166;28;19918;-87
2023/02/21 09:13:54;;;;;;;;;;;;;;;8.93;nan;100965.31;4992077;28;19993;-86
2023/02/21 09:16:19;;;;;;;;;;;;;;;9.03;nan;100958.28;4973931;28;19914;-86
2023/02/21 09:18:51;;;;;;;;;;;;;;;9.11;nan;100965.56;4992549;28;19924;-86
2023/02/21 09:21:16;;;;;;;;;;;;;;;9.18;nan;100950.06;4975017;28;19917;-87
2023/02/21 09:23:42;;;;;;;;;;;;;;;9.26;nan;100948.41;4974814;28;19918;-86
2023/02/21 09:26:07;;;;;;;;;;;;;;;9.36;nan;100951.91;4970350;28;20266;-87
2023/02/21 09:28:32;;;;;;;;;;;;;;;9.45;nan;100960.84;4966321;28;19918;-86
2023/02/21 09:30:57;;;;;;;;;;;;;;;9.55;nan;100945.03;4981263;28;20330;-87
2023/02/21 09:33:22;;;;;;;;;;;;;;;9.67;nan;100948.38;4973713;28;19948;-86
2023/02/21 09:35:49;;;;;;;;;;;;;;;9.74;nan;100955.63;4965849;28;20434;-87
2023/02/21 09:38:14;;;;;;;;;;;;;;;9.82;nan;100946.19;4968542;28;19937;-86
2023/02/21 09:40:44;;;;;;;;;;;;;;;9.86;nan;100944.94;4961101;28;19918;-87
2023/02/21 09:43:13;;;;;;;;;;;;;;;9.93;nan;100938.97;4983899;28;19953;-87
2023/02/21 09:45:39;;;;;;;;;;;;;;;10.03;nan;100943.44;4984647;28;19918;-87
2023/02/21 09:48:06;;;;;;;;;;;;;;;10.10;nan;100932.16;4982229;28;19914;-87
2023/02/21 09:50:33;;;;;;;;;;;;;;;10.18;nan;100936.78;4967530;28;19922;-84
2023/02/21 09:52:59;;;;;;;;;;;;;;;10.25;nan;100932.63;4963487;28;19960;-85
2023/02/21 09:55:30;;;;;;;;;;;;;;;10.33;nan;100930.13;4992642;28;20303;-85
2023/02/21 09:57:55;;;;;;;;;;;;;;;10.31;nan;100932.06;4974939;28;20390;-85
2023/02/21 10:00:23;;;;;;;;;;;;;;;10.39;nan;100923.44;4989374;28;19922;-85
2023/02/21 10:03:07;;;;;;;;;;;;;;;10.45;nan;100927.34;4979854;28;20339;-85
2023/02/21 10:05:37;;;;;;;;;;;;;;;10.55;nan;100922.88;4988480;28;20439;-85
2023/02/21 10:08:16;;;;;;;;;;;;;;;10.61;nan;100928.44;4969270;28;19957;-86
2023/02/21 10:10:52;;;;;;;;;;;;;;;10.69;nan;100929.53;4984450;28;19921;-87
2023/02/21 10:13:36;;;;;;;;;;;;;;;10.74;nan;100922.00;4994891;28;19918;-86
2023/02/21 10:16:07;;;;;;;;;;;;;;;10.84;nan;100931.59;4974803;28;19929;-86
2023/02/21 10:18:51;;;;;;;;;;;;;;;10.83;nan;100921.97;4977970;28;19924;-85
2023/02/21 10:21:22;;;;;;;;;;;;;;;10.92;nan;100919.44;4974888;28;19988;-85
2023/02/21 10:23:49;;;;;;;;;;;;;;;11.01;nan;100923.84;4993630;28;20401;-85
2023/02/21 10:26:17;;;;;;;;;;;;;;;11.13;nan;100927.16;4982331;28;19921;-86
2023/02/21 10:28:42;;;;;;;;;;;;;;;11.17;nan;100925.88;4984537;28;19918;-85
2023/02/21 10:31:11;;;;;;;;;;;;;;;11.29;nan;100916.75;4992369;28;19937;-86
2023/02/21 10:33:37;;;;;;;;;;;;;;;11.40;nan;100918.41;4974932;28;20379;-85
2023/02/21 10:36:08;;;;;;;;;;;;;;;11.45;nan;100916.13;4974088;28;19955;-86
2023/02/21 10:38:33;;;;;;;;;;;;;;;11.63;nan;100918.81;4961919;28;19920;-85
2023/02/21 10:41:02;;;;;;;;;;;;;;;12.23;nan;100912.97;4973399;28;19917;-85
2023/02/21 10:43:31;;;;;;;;;;;;;;;12.82;nan;100914.03;4985475;28;19953;-85
2023/02/21 10:45:56;;;;;;;;;;;;;;;13.92;nan;100911.47;4970368;28;19928;-84
2023/02/21 10:48:23;;;;;;;;;;;;;;;15.70;nan;100913.97;4968143;28;19922;-84
2023/02/21 10:50:50;;;;;;;;;;;;;;;17.43;nan;100915.06;4988807;28;20367;-85
2023/02/21 10:53:33;;;;;;;;;;;;;;;18.92;nan;100916.03;4990040;28;19917;-84
2023/02/21 10:56:13;;;;;;;;;;;;;;;20.10;nan;100916.69;4974540;28;19918;-84
2023/02/21 10:58:39;;;;;;;;;;;;;;;20.90;nan;100913.16;4992503;28;20017;-85
2023/02/21 11:01:11;;;;;;;;;;;;;;;21.62;nan;100909.38;4969343;28;20400;-85
2023/02/21 11:03:41;;;;;;;;;;;;;;;22.07;nan;100905.78;4983802;28;19937;-86
2023/02/21 11:06:06;;;;;;;;;;;;;;;22.64;nan;100905.75;4972219;28;20005;-86
2023/02/21 11:08:35;;;;;;;;;;;;;;;23.15;nan;100901.09;4974387;28;20064;-84
2023/02/21 11:11:01;;;;;;;;;;;;;;;23.42;nan;100897.00;4972327;28;19921;-84
2023/02/21 11:13:26;;;;;;;;;;;;;;;24.12;nan;100895.59;4971575;28;19918;-85
2023/02/21 11:16:06;;;;;;;;;;;;;;;24.64;nan;100890.34;4976574;28;20424;-85
2023/02/21 11:18:31;;;;;;;;;;;;;;;24.99;nan;100884.09;4996428;28;19924;-86
2023/02/21 11:21:08;;;;;;;;;;;;;;;25.45;nan;100879.59;4976655;28;20016;-84
2023/02/21 11:23:34;;;;;;;;;;;;;;;25.43;nan;100873.59;4979623;28;20256;-85
2023/02/21 11:26:06;;;;;;;;;;;;;;;25.45;nan;100882.31;4970291;28;19932;-84
2023/02/21 11:28:35;;;;;;;;;;;;;;;25.59;nan;100870.13;4971240;28;20387;-84
2023/02/21 11:31:01;;;;;;;;;;;;;;;25.59;nan;100861.19;4969419;28;19922;-84
2023/02/21 11:33:26;;;;;;;;;;;;;;;25.53;nan;100859.44;4969614;28;19918;-85
2023/02/21 11:35:53;;;;;;;;;;;;;;;25.24;nan;100856.72;4989939;28;19925;-84
2023/02/21 11:38:39;;;;;;;;;;;;;;;24.65;nan;100854.16;4989672;28;20303;-84
2023/02/21 11:41:15;;;;;;;;;;;;;;;24.12;nan;100847.81;4969871;28;20177;-85
2023/02/21 11:43:44;;;;;;;;;;;;;;;23.61;nan;100834.88;4970434;28;20379;-85
2023/02/21 11:46:33;;;;;;;;;;;;;;;22.64;nan;100832.97;4987469;28;19964;-84
2023/02/21 11:49:06;;;;;;;;;;;;;;;21.98;nan;100837.09;4957208;28;19921;-84
2023/02/21 11:51:34;;;;;;;;;;;;;;;21.30;nan;100822.38;4972784;28;20271;-85
2023/02/21 11:54:00;;;;;;;;;;;;;;;20.83;nan;100827.13;4970547;28;19917;-83
2023/02/21 11:56:25;;;;;;;;;;;;;;;20.39;nan;100823.31;4988939;28;19924;-84
2023/02/21 11:58:55;;;;;;;;;;;;;;;19.97;nan;100816.53;4973815;28;19988;-84
2023/02/21 12:01:27;;;;;;;;;;;;;;;19.29;nan;100815.56;4979860;28;19925;-84
2023/02/21 12:04:11;;;;;;;;;;;;;;;19.01;nan;100815.69;4969062;28;19917;-85
2023/02/21 12:06:36;;;;;;;;;;;;;;;18.59;nan;100812.16;4986021;28;19917;-83
2023/02/21 12:09:23;;;;;;;;;;;;;;;18.29;nan;100808.06;4985397;28;19918;-83
2023/02/21 12:11:54;;;;;;;;;;;;;;;17.97;nan;100797.75;4970355;28;19922;-83
2023/02/21 12:14:19;;;;;;;;;;;;;;;17.71;nan;100792.13;4988055;28;19928;-83
2023/02/21 12:16:47;;;;;;;;;;;;;;;17.44;nan;100786.53;4973960;28;20096;-83
2023/02/21 12:19:27;;;;;;;;;;;;;;;17.07;nan;100791.06;4989115;28;19918;-83
2023/02/21 12:22:22;;;;;;;;;;;;;;;16.89;nan;100780.78;4987388;28;19929;-83
2023/02/21 12:24:47;;;;;;;;;;;;;;;16.62;nan;100776.09;4963113;28;19945;-83
2023/02/21 12:27:16;;;;;;;;;;;;;;;16.33;nan;100770.59;4978815;28;19922;-84
2023/02/21 12:29:48;;;;;;;;;;;;;;;16.15;nan;100762.09;4996626;28;19922;-84
2023/02/21 12:32:13;;;;;;;;;;;;;;;16.08;nan;100763.84;4977693;28;20403;-85
2023/02/21 12:34:50;;;;;;;;;;;;;;;15.97;nan;100766.94;4974042;28;19925;-85
2023/02/21 12:37:15;;;;;;;;;;;;;;;15.87;nan;100749.38;4984187;28;19933;-84
2023/02/21 12:39:57;;;;;;;;;;;;;;;15.73;nan;100747.50;4976064;28;19921;-83
2023/02/21 12:42:32;;;;;;;;;;;;;;;15.65;nan;100744.88;4967433;28;20337;-83
2023/02/21 12:45:13;;;;;;;;;;;;;;;15.60;nan;100744.56;4989806;28;19918;-83
2023/02/21 12:47:52;;;;;;;;;;;;;;;15.60;nan;100740.06;4985758;28;19918;-82
2023/02/21 12:50:20;;;;;;;;;;;;;;;15.53;nan;100730.31;4989896;28;19922;-82
2023/02/21 12:53:01;;;;;;;;;;;;;;;15.34;nan;100726.28;4992249;28;19918;-84
2023/02/21 12:55:32;;;;;;;;;;;;;;;15.26;nan;100730.69;4993529;28;20371;-84
2023/02/21 12:58:10;;;;;;;;;;;;;;;15.26;nan;100724.53;4970058;28;19964;-84
2023/02/21 13:00:54;;;;;;;;;;;;;;;15.30;nan;100720.47;4980049;28;19929;-84
2023/02/21 13:03:29;;;;;;;;;;;;;;;15.24;nan;100713.22;4988264;28;19918;-83
2023/02/21 13:06:13;;;;;;;;;;;;;;;15.28;nan;100719.84;4973499;28;19922;-82
2023/02/21 13:08:48;;;;;;;;;;;;;;;15.19;nan;100711.06;4974608;28;19925;-83
2023/02/21 13:11:17;;;;;;;;;;;;;;;15.19;nan;100713.75;4972295;28;20001;-83
2023/02/21 13:13:42;;;;;;;;;;;;;;;15.22;nan;100704.56;4982959;28;20168;-83
2023/02/21 13:16:11;;;;;;;;;;;;;;;15.15;nan;100700.94;4973474;28;19917;-84
2023/02/21 13:18:39;;;;;;;;;;;;;;;15.19;nan;100699.59;4973153;28;19933;-84
2023/02/21 13:21:21;;;;;;;;;;;;;;;15.25;nan;100704.19;4972444;28;19964;-84
2023/02/21 13:24:05;;;;;;;;;;;;;;;15.27;nan;100686.22;4977291;28;19924;-84
2023/02/21 13:26:50;;;;;;;;;;;;;;;15.21;nan;100681.59;4969935;28;19913;-84
2023/02/21 13:29:20;;;;;;;;;;;;;;;15.14;nan;100681.50;4994284;28;19921;-85
2023/02/21 13:31:46;;;;;;;;;;;;;;;15.21;nan;100681.59;4976338;28;19945;-84
2023/02/21 13:34:17;;;;;;;;;;;;;;;15.16;nan;100683.94;4992218;28;20391;-84
2023/02/21 13:36:44;;;;;;;;;;;;;;;15.17;nan;100678.47;4976817;28;19910;-85
2023/02/21 13:39:30;;;;;;;;;;;;;;;15.18;nan;100671.28;4976391;28;19914;-84
2023/02/21 13:42:07;;;;;;;;;;;;;;;15.12;nan;100667.50;4993263;28;19945;-86
2023/02/21 13:44:35;;;;;;;;;;;;;;;15.14;nan;100662.03;4982290;28;19979;-84
2023/02/21 13:47:09;;;;;;;;;;;;;;;15.11;nan;100657.88;4976332;28;19948;-84
2023/02/21 13:49:37;;;;;;;;;;;;;;;15.16;nan;100655.50;4975923;28;19917;-85
2023/02/21 13:52:25;;;;;;;;;;;;;;;15.21;nan;100649.66;4975407;28;20372;-86
2023/02/21 13:55:09;;;;;;;;;;;;;;;15.23;nan;100645.78;4996458;28;20320;-85
2023/02/21 13:57:35;;;;;;;;;;;;;;;15.24;nan;100643.94;4985278;28;19918;-85
2023/02/21 14:00:23;;;;;;;;;;;;;;;15.22;nan;100638.78;4994104;28;20498;-86
2023/02/21 14:03:00;;;;;;;;;;;;;;;15.26;nan;100631.28;4987301;28;20126;-84
2023/02/21 14:05:26;;;;;;;;;;;;;;;15.31;nan;100636.06;4989163;28;19918;-85
2023/02/21 14:07:59;;;;;;;;;;;;;;;15.33;nan;100626.88;4981919;28;19929;-85
2023/02/21 14:10:27;;;;;;;;;;;;;;;15.34;nan;100627.72;4964250;28;19914;-85
2023/02/21 14:12:54;;;;;;;;;;;;;;;15.33;nan;100623.41;4985477;28;19918;-85
2023/02/21 14:15:20;;;;;;;;;;;;;;;15.33;nan;100621.56;4986172;28;19917;-85
2023/02/21 14:17:46;;;;;;;;;;;;;;;15.34;nan;100623.19;4972287;28;19929;-85
2023/02/21 14:20:15;;;;;;;;;;;;;;;15.36;nan;100620.38;4983407;28;19926;-85
2023/02/21 14:22:40;;;;;;;;;;;;;;;15.35;nan;100616.88;4975647;28;19914;-85
2023/02/21 14:25:13;;;;;;;;;;;;;;;15.34;nan;100617.06;4988363;28;19965;-85
2023/02/21 14:27:39;;;;;;;;;;;;;;;15.35;nan;100619.53;4972554;28;19914;-87
2023/02/21 14:30:25;;;;;;;;;;;;;;;15.31;nan;100617.41;4976675;28;19914;-85
2023/02/21 14:32:51;;;;;;;;;;;;;;;15.27;nan;100614.28;4983748;28;20001;-85
2023/02/21 14:35:19;;;;;;;;;;;;;;;15.27;nan;100611.63;4984595;28;20004;-85
2023/02/21 14:37:44;;;;;;;;;;;;;;;15.32;nan;100611.91;4986024;28;20402;-86
2023/02/21 14:40:18;;;;;;;;;;;;;;;15.29;nan;100606.94;4979311;28;19917;-85
2023/02/21 14:43:02;;;;;;;;;;;;;;;15.28;nan;100607.97;4975244;28;19920;-85
2023/02/21 14:45:46;;;;;;;;;;;;;;;15.27;nan;100607.09;4981322;28;19965;-85
2023/02/21 14:48:30;;;;;;;;;;;;;;;15.26;nan;100604.63;4991080;28;20008;-85
2023/02/21 14:51:12;;;;;;;;;;;;;;;15.20;nan;100600.84;4991565;28;19914;-85
2023/02/21 14:53:56;;;;;;;;;;;;;;;15.18;nan;100596.69;4975713;28;19913;-85
2023/02/21 14:56:40;;;;;;;;;;;;;;;15.15;nan;100592.56;4984119;28;19932;-85
2023/02/21 14:59:05;;;;;;;;;;;;;;;15.15;nan;100584.56;4994063;28;20071;-84
2023/02/21 15:01:49;;;;;;;;;;;;;;;15.12;nan;100592.13;4993692;28;19928;-85
2023/02/21 15:04:26;;;;;;;;;;;;;;;15.13;nan;100585.75;4991353;28;20047;-85
2023/02/21 15:06:57;;;;;;;;;;;;;;;15.11;nan;100588.63;4975872;28;19956;-85
2023/02/21 15:09:23;;;;;;;;;;;;;;;15.04;nan;100583.19;4972988;28;20511;-85
2023/02/21 15:11:50;;;;;;;;;;;;;;;14.99;nan;100580.25;4983950;28;19981;-85
2023/02/21 15:14:21;;;;;;;;;;;;;;;14.98;nan;100572.41;4963336;28;19914;-85
2023/02/21 15:16:47;;;;;;;;;;;;;;;14.94;nan;100582.59;4987149;28;19914;-85
2023/02/21 15:19:20;;;;;;;;;;;;;;;14.91;nan;100579.47;4981605;28;19921;-85
2023/02/21 15:21:46;;;;;;;;;;;;;;;14.86;nan;100580.81;4970952;28;19921;-85
2023/02/21 15:24:12;;;;;;;;;;;;;;;14.85;nan;100578.34;4974709;28;20017;-85
2023/02/21 15:26:38;;;;;;;;;;;;;;;14.79;nan;100565.75;4971296;28;19914;-85